sensor_id;sensor_type;location;lat;lon;timestamp;pressure;altitude;pressure_sealevel;temperature
76895;BMP280;65855;42.030;13.078;2023-05-07T00:00:19;93873.53;;;10.95
76895;BMP280;65855;42.030;13.078;2023-05-07T00:02:45;93873.31;;;10.91
76895;BMP280;65855;42.030;13.078;2023-05-07T00:05:10;93864.34;;;10.62
76895;BMP280;65855;42.030;13.078;2023-05-07T00:07:36;93865.41;;;10.56
76895;BMP280;65855;42.030;13.078;2023-05-07T00:10:03;93864.88;;;10.59
76895;BMP280;65855;42.030;13.078;2023-05-07T00:12:28;93865.09;;;10.63
76895;BMP280;65855;42.030;13.078;2023-05-07T00:14:57;93863.78;;;10.65
76895;BMP280;65855;42.030;13.078;2023-05-07T00:17:22;93857.25;;;10.64
76895;BMP280;65855;42.030;13.078;2023-05-07T00:19:47;93855.53;;;10.42
76895;BMP280;65855;42.030;13.078;2023-05-07T00:22:13;93864.59;;;10.15
76895;BMP280;65855;42.030;13.078;2023-05-07T00:24:38;93864.59;;;10.15
76895;BMP280;65855;42.030;13.078;2023-05-07T00:27:05;93859.88;;;9.81
76895;BMP280;65855;42.030;13.078;2023-05-07T00:29:30;93855.69;;;9.71
76895;BMP280;65855;42.030;13.078;2023-05-07T00:31:56;93862.38;;;9.81
76895;BMP280;65855;42.030;13.078;2023-05-07T00:34:21;93861.53;;;9.95
76895;BMP280;65855;42.030;13.078;2023-05-07T00:36:47;93858.31;;;9.89
76895;BMP280;65855;42.030;13.078;2023-05-07T00:39:13;93855.44;;;10.01
76895;BMP280;65855;42.030;13.078;2023-05-07T00:41:38;93853.47;;;9.98
76895;BMP280;65855;42.030;13.078;2023-05-07T00:44:03;93867.69;;;9.84
76895;BMP280;65855;42.030;13.078;2023-05-07T00:46:30;93865.28;;;9.64
76895;BMP280;65855;42.030;13.078;2023-05-07T00:48:56;93862.44;;;9.76
76895;BMP280;65855;42.030;13.078;2023-05-07T00:51:23;93871.34;;;9.63
76895;BMP280;65855;42.030;13.078;2023-05-07T00:53:50;93870.00;;;9.43
76895;BMP280;65855;42.030;13.078;2023-05-07T00:56:15;93865.38;;;9.55
76895;BMP280;65855;42.030;13.078;2023-05-07T00:58:41;93856.22;;;9.35
76895;BMP280;65855;42.030;13.078;2023-05-07T01:01:07;93852.19;;;9.67
76895;BMP280;65855;42.030;13.078;2023-05-07T01:03:32;93856.53;;;9.57
76895;BMP280;65855;42.030;13.078;2023-05-07T01:05:59;93845.69;;;9.61
76895;BMP280;65855;42.030;13.078;2023-05-07T01:08:25;93844.63;;;9.67
76895;BMP280;65855;42.030;13.078;2023-05-07T01:10:54;93837.69;;;9.82
76895;BMP280;65855;42.030;13.078;2023-05-07T01:13:20;93842.69;;;9.59
76895;BMP280;65855;42.030;13.078;2023-05-07T01:15:46;93842.75;;;9.50
76895;BMP280;65855;42.030;13.078;2023-05-07T01:18:13;93843.28;;;9.80
76895;BMP280;65855;42.030;13.078;2023-05-07T01:20:39;93839.13;;;9.93
76895;BMP280;65855;42.030;13.078;2023-05-07T01:23:05;93839.03;;;10.26
76895;BMP280;65855;42.030;13.078;2023-05-07T01:25:32;93840.31;;;10.47
76895;BMP280;65855;42.030;13.078;2023-05-07T01:27:58;93836.84;;;10.20
76895;BMP280;65855;42.030;13.078;2023-05-07T01:30:25;93842.34;;;10.86
76895;BMP280;65855;42.030;13.078;2023-05-07T01:32:56;93840.09;;;11.03
76895;BMP280;65855;42.030;13.078;2023-05-07T01:35:26;93836.84;;;11.02
76895;BMP280;65855;42.030;13.078;2023-05-07T01:37:52;93836.97;;;10.74
76895;BMP280;65855;42.030;13.078;2023-05-07T01:40:18;93834.91;;;10.35
76895;BMP280;65855;42.030;13.078;2023-05-07T01:42:45;93844.50;;;9.87
76895;BMP280;65855;42.030;13.078;2023-05-07T01:45:11;93843.72;;;9.59
76895;BMP280;65855;42.030;13.078;2023-05-07T01:47:37;93849.81;;;9.53
76895;BMP280;65855;42.030;13.078;2023-05-07T01:50:06;93855.59;;;9.53
76895;BMP280;65855;42.030;13.078;2023-05-07T01:52:33;93864.97;;;9.43
76895;BMP280;65855;42.030;13.078;2023-05-07T01:54:59;93856.66;;;9.42
76895;BMP280;65855;42.030;13.078;2023-05-07T01:57:24;93864.47;;;9.41
76895;BMP280;65855;42.030;13.078;2023-05-07T01:59:50;93867.63;;;9.18
76895;BMP280;65855;42.030;13.078;2023-05-07T02:02:15;93870.81;;;8.96
76895;BMP280;65855;42.030;13.078;2023-05-07T02:04:41;93868.88;;;8.83
76895;BMP280;65855;42.030;13.078;2023-05-07T02:07:06;93873.41;;;8.81
76895;BMP280;65855;42.030;13.078;2023-05-07T02:09:32;93867.69;;;8.61
76895;BMP280;65855;42.030;13.078;2023-05-07T02:11:57;93867.59;;;8.81
76895;BMP280;65855;42.030;13.078;2023-05-07T02:14:22;93869.88;;;8.82
76895;BMP280;65855;42.030;13.078;2023-05-07T02:16:48;93865.50;;;8.50
76895;BMP280;65855;42.030;13.078;2023-05-07T02:19:13;93860.41;;;8.69
76895;BMP280;65855;42.030;13.078;2023-05-07T02:21:38;93857.50;;;8.95
76895;BMP280;65855;42.030;13.078;2023-05-07T02:24:04;93853.69;;;8.98
76895;BMP280;65855;42.030;13.078;2023-05-07T02:26:30;93857.94;;;9.02
76895;BMP280;65855;42.030;13.078;2023-05-07T02:28:55;93853.50;;;9.27
76895;BMP280;65855;42.030;13.078;2023-05-07T02:31:21;93868.78;;;8.98
76895;BMP280;65855;42.030;13.078;2023-05-07T02:33:46;93855.31;;;9.55
76895;BMP280;65855;42.030;13.078;2023-05-07T02:36:12;93860.75;;;9.34
76895;BMP280;65855;42.030;13.078;2023-05-07T02:38:38;93856.94;;;9.69
76895;BMP280;65855;42.030;13.078;2023-05-07T02:41:04;93861.44;;;10.05
76895;BMP280;65855;42.030;13.078;2023-05-07T02:43:29;93855.97;;;9.98
76895;BMP280;65855;42.030;13.078;2023-05-07T02:46:08;93869.72;;;10.10
76895;BMP280;65855;42.030;13.078;2023-05-07T02:48:34;93863.81;;;10.19
76895;BMP280;65855;42.030;13.078;2023-05-07T02:51:00;93864.84;;;10.18
76895;BMP280;65855;42.030;13.078;2023-05-07T02:53:26;93870.81;;;10.22
76895;BMP280;65855;42.030;13.078;2023-05-07T02:55:55;93863.16;;;10.32
76895;BMP280;65855;42.030;13.078;2023-05-07T02:58:21;93858.22;;;10.68
76895;BMP280;65855;42.030;13.078;2023-05-07T03:00:47;93863.16;;;10.32
76895;BMP280;65855;42.030;13.078;2023-05-07T03:03:13;93868.81;;;9.96
76895;BMP280;65855;42.030;13.078;2023-05-07T03:05:38;93861.72;;;9.70
76895;BMP280;65855;42.030;13.078;2023-05-07T03:08:04;93866.88;;;9.56
76895;BMP280;65855;42.030;13.078;2023-05-07T03:10:30;93873.59;;;9.32
76895;BMP280;65855;42.030;13.078;2023-05-07T03:12:55;93860.19;;;9.04
76895;BMP280;65855;42.030;13.078;2023-05-07T03:15:21;93861.81;;;8.85
76895;BMP280;65855;42.030;13.078;2023-05-07T03:17:47;93862.69;;;9.09
76895;BMP280;65855;42.030;13.078;2023-05-07T03:20:13;93855.75;;;9.29
76895;BMP280;65855;42.030;13.078;2023-05-07T03:22:38;93858.53;;;8.85
76895;BMP280;65855;42.030;13.078;2023-05-07T03:25:05;93855.44;;;8.50
76895;BMP280;65855;42.030;13.078;2023-05-07T03:27:30;93853.88;;;8.68
76895;BMP280;65855;42.030;13.078;2023-05-07T03:29:56;93846.22;;;8.88
76895;BMP280;65855;42.030;13.078;2023-05-07T03:32:21;93851.00;;;9.27
76895;BMP280;65855;42.030;13.078;2023-05-07T03:34:46;93854.31;;;9.51
76895;BMP280;65855;42.030;13.078;2023-05-07T03:37:12;93845.91;;;10.44
76895;BMP280;65855;42.030;13.078;2023-05-07T03:39:37;93844.88;;;10.86
76895;BMP280;65855;42.030;13.078;2023-05-07T03:42:03;93844.13;;;11.03
76895;BMP280;65855;42.030;13.078;2023-05-07T03:44:28;93839.81;;;10.86
76895;BMP280;65855;42.030;13.078;2023-05-07T03:46:54;93836.09;;;10.19
76895;BMP280;65855;42.030;13.078;2023-05-07T03:49:20;93848.97;;;10.18
76895;BMP280;65855;42.030;13.078;2023-05-07T03:51:46;93838.72;;;10.09
76895;BMP280;65855;42.030;13.078;2023-05-07T03:54:11;93848.56;;;9.78
76895;BMP280;65855;42.030;13.078;2023-05-07T03:56:37;93855.78;;;9.57
76895;BMP280;65855;42.030;13.078;2023-05-07T03:59:02;93855.34;;;9.50
76895;BMP280;65855;42.030;13.078;2023-05-07T04:01:28;93862.75;;;9.36
76895;BMP280;65855;42.030;13.078;2023-05-07T04:03:53;93860.72;;;9.01
76895;BMP280;65855;42.030;13.078;2023-05-07T04:06:18;93859.59;;;8.74
76895;BMP280;65855;42.030;13.078;2023-05-07T04:08:44;93856.59;;;8.72
76895;BMP280;65855;42.030;13.078;2023-05-07T04:11:09;93860.19;;;8.56
76895;BMP280;65855;42.030;13.078;2023-05-07T04:13:35;93855.25;;;8.37
76895;BMP280;65855;42.030;13.078;2023-05-07T04:16:01;93858.25;;;8.34
76895;BMP280;65855;42.030;13.078;2023-05-07T04:18:27;93854.78;;;8.20
76895;BMP280;65855;42.030;13.078;2023-05-07T04:20:53;93856.50;;;8.34
76895;BMP280;65855;42.030;13.078;2023-05-07T04:23:19;93855.06;;;8.23
76895;BMP280;65855;42.030;13.078;2023-05-07T04:25:44;93851.91;;;8.56
76895;BMP280;65855;42.030;13.078;2023-05-07T04:28:10;93852.97;;;8.35
76895;BMP280;65855;42.030;13.078;2023-05-07T04:30:36;93855.41;;;8.55
76895;BMP280;65855;42.030;13.078;2023-05-07T04:33:02;93850.00;;;8.86
76895;BMP280;65855;42.030;13.078;2023-05-07T04:35:27;93847.44;;;8.95
76895;BMP280;65855;42.030;13.078;2023-05-07T04:37:53;93848.22;;;8.86
76895;BMP280;65855;42.030;13.078;2023-05-07T04:40:18;93849.38;;;9.03
76895;BMP280;65855;42.030;13.078;2023-05-07T04:42:44;93840.94;;;8.89
76895;BMP280;65855;42.030;13.078;2023-05-07T04:45:09;93842.53;;;9.13
76895;BMP280;65855;42.030;13.078;2023-05-07T04:47:35;93838.84;;;9.39
76895;BMP280;65855;42.030;13.078;2023-05-07T04:50:01;93840.47;;;9.81
76895;BMP280;65855;42.030;13.078;2023-05-07T04:52:27;66609.22;;;-136.11
76895;BMP280;65855;42.030;13.078;2023-05-07T04:54:52;66609.22;;;-136.11
76895;BMP280;65855;42.030;13.078;2023-05-07T04:57:18;66609.22;;;-136.11
76895;BMP280;65855;42.030;13.078;2023-05-07T04:59:44;66609.22;;;-136.11
76895;BMP280;65855;42.030;13.078;2023-05-07T05:02:12;66609.22;;;-136.11
76895;BMP280;65855;42.030;13.078;2023-05-07T05:04:37;66609.22;;;-136.11
76895;BMP280;65855;42.030;13.078;2023-05-07T05:07:03;66609.22;;;-136.11
76895;BMP280;65855;42.030;13.078;2023-05-07T05:09:29;66609.22;;;-136.11
76895;BMP280;65855;42.030;13.078;2023-05-07T05:11:55;66609.22;;;-136.11
76895;BMP280;65855;42.030;13.078;2023-05-07T05:14:20;66609.22;;;-136.11
76895;BMP280;65855;42.030;13.078;2023-05-07T05:16:46;66609.22;;;-136.11
76895;BMP280;65855;42.030;13.078;2023-05-07T05:19:11;66609.22;;;-136.11
76895;BMP280;65855;42.030;13.078;2023-05-07T05:21:37;66609.22;;;-136.11
76895;BMP280;65855;42.030;13.078;2023-05-07T05:24:02;66609.22;;;-136.11
76895;BMP280;65855;42.030;13.078;2023-05-07T05:26:28;66609.22;;;-136.11
76895;BMP280;65855;42.030;13.078;2023-05-07T05:28:54;66609.22;;;-136.11
76895;BMP280;65855;42.030;13.078;2023-05-07T05:31:19;66609.22;;;-136.11
76895;BMP280;65855;42.030;13.078;2023-05-07T05:33:44;66609.22;;;-136.11
76895;BMP280;65855;42.030;13.078;2023-05-07T05:36:10;66609.22;;;-136.11
76895;BMP280;65855;42.030;13.078;2023-05-07T05:38:37;66609.22;;;-136.11
76895;BMP280;65855;42.030;13.078;2023-05-07T05:41:02;66609.22;;;-136.11
76895;BMP280;65855;42.030;13.078;2023-05-07T05:43:28;66609.22;;;-136.11
76895;BMP280;65855;42.030;13.078;2023-05-07T05:45:55;66609.22;;;-136.11
76895;BMP280;65855;42.030;13.078;2023-05-07T05:48:20;66609.22;;;-136.11
76895;BMP280;65855;42.030;13.078;2023-05-07T05:50:46;66609.22;;;-136.11
76895;BMP280;65855;42.030;13.078;2023-05-07T05:53:11;66609.22;;;-136.11
76895;BMP280;65855;42.030;13.078;2023-05-07T05:55:37;66609.22;;;-136.11
76895;BMP280;65855;42.030;13.078;2023-05-07T05:58:02;66609.22;;;-136.11
76895;BMP280;65855;42.030;13.078;2023-05-07T06:00:28;66609.22;;;-136.11
76895;BMP280;65855;42.030;13.078;2023-05-07T06:02:54;66609.22;;;-136.11
76895;BMP280;65855;42.030;13.078;2023-05-07T06:05:20;66609.22;;;-136.11
76895;BMP280;65855;42.030;13.078;2023-05-07T06:07:45;66609.22;;;-136.11
76895;BMP280;65855;42.030;13.078;2023-05-07T06:10:11;66609.22;;;-136.11
76895;BMP280;65855;42.030;13.078;2023-05-07T06:12:36;66609.22;;;-136.11
76895;BMP280;65855;42.030;13.078;2023-05-07T06:15:02;66609.22;;;-136.11
76895;BMP280;65855;42.030;13.078;2023-05-07T06:17:28;66609.22;;;-136.11
76895;BMP280;65855;42.030;13.078;2023-05-07T06:19:53;66609.22;;;-136.11
76895;BMP280;65855;42.030;13.078;2023-05-07T06:22:19;66609.22;;;-136.11
76895;BMP280;65855;42.030;13.078;2023-05-07T06:24:44;66609.22;;;-136.11
76895;BMP280;65855;42.030;13.078;2023-05-07T06:27:10;66609.22;;;-136.11
76895;BMP280;65855;42.030;13.078;2023-05-07T06:29:35;66609.22;;;-136.11
76895;BMP280;65855;42.030;13.078;2023-05-07T06:32:11;66609.22;;;-136.11
76895;BMP280;65855;42.030;13.078;2023-05-07T06:34:37;66609.22;;;-136.11
76895;BMP280;65855;42.030;13.078;2023-05-07T06:37:03;66609.22;;;-136.11
76895;BMP280;65855;42.030;13.078;2023-05-07T06:39:28;66609.22;;;-136.11
76895;BMP280;65855;42.030;13.078;2023-05-07T06:41:54;66609.22;;;-136.11
76895;BMP280;65855;42.030;13.078;2023-05-07T06:44:19;66609.22;;;-136.11
76895;BMP280;65855;42.030;13.078;2023-05-07T06:46:45;66609.22;;;-136.11
76895;BMP280;65855;42.030;13.078;2023-05-07T06:49:12;66609.22;;;-136.11
76895;BMP280;65855;42.030;13.078;2023-05-07T06:51:38;66609.22;;;-136.11
76895;BMP280;65855;42.030;13.078;2023-05-07T06:54:03;66609.22;;;-136.11
76895;BMP280;65855;42.030;13.078;2023-05-07T06:56:30;66609.22;;;-136.11
76895;BMP280;65855;42.030;13.078;2023-05-07T06:58:55;66609.22;;;-136.11
76895;BMP280;65855;42.030;13.078;2023-05-07T07:01:21;66609.22;;;-136.11
76895;BMP280;65855;42.030;13.078;2023-05-07T07:03:46;66609.22;;;-136.11
76895;BMP280;65855;42.030;13.078;2023-05-07T07:06:12;66609.22;;;-136.11
76895;BMP280;65855;42.030;13.078;2023-05-07T07:08:37;66609.22;;;-136.11
76895;BMP280;65855;42.030;13.078;2023-05-07T07:11:04;66609.22;;;-136.11
76895;BMP280;65855;42.030;13.078;2023-05-07T07:13:30;66609.22;;;-136.11
76895;BMP280;65855;42.030;13.078;2023-05-07T07:15:55;66609.22;;;-136.11
76895;BMP280;65855;42.030;13.078;2023-05-07T07:18:21;66609.22;;;-136.11
76895;BMP280;65855;42.030;13.078;2023-05-07T07:20:46;66609.22;;;-136.11
76895;BMP280;65855;42.030;13.078;2023-05-07T07:23:12;66609.22;;;-136.11
76895;BMP280;65855;42.030;13.078;2023-05-07T07:25:37;66609.22;;;-136.11
76895;BMP280;65855;42.030;13.078;2023-05-07T07:28:02;66609.22;;;-136.11
76895;BMP280;65855;42.030;13.078;2023-05-07T07:30:28;66609.22;;;-136.11
76895;BMP280;65855;42.030;13.078;2023-05-07T07:32:54;66609.22;;;-136.11
76895;BMP280;65855;42.030;13.078;2023-05-07T07:35:21;66609.22;;;-136.11
76895;BMP280;65855;42.030;13.078;2023-05-07T07:37:47;66609.22;;;-136.11
76895;BMP280;65855;42.030;13.078;2023-05-07T07:40:14;66609.22;;;-136.11
76895;BMP280;65855;42.030;13.078;2023-05-07T07:42:40;66609.22;;;-136.11
76895;BMP280;65855;42.030;13.078;2023-05-07T07:45:06;66609.22;;;-136.11
76895;BMP280;65855;42.030;13.078;2023-05-07T07:47:32;66609.22;;;-136.11
76895;BMP280;65855;42.030;13.078;2023-05-07T07:49:57;66609.22;;;-136.11
76895;BMP280;65855;42.030;13.078;2023-05-07T07:52:22;66609.22;;;-136.11
76895;BMP280;65855;42.030;13.078;2023-05-07T07:54:48;66609.22;;;-136.11
76895;BMP280;65855;42.030;13.078;2023-05-07T07:57:13;66609.22;;;-136.11
76895;BMP280;65855;42.030;13.078;2023-05-07T07:59:39;66609.22;;;-136.11
76895;BMP280;65855;42.030;13.078;2023-05-07T08:02:05;66609.22;;;-136.11
76895;BMP280;65855;42.030;13.078;2023-05-07T08:04:30;66609.22;;;-136.11
76895;BMP280;65855;42.030;13.078;2023-05-07T08:06:58;66609.22;;;-136.11
76895;BMP280;65855;42.030;13.078;2023-05-07T08:09:23;66609.22;;;-136.11
76895;BMP280;65855;42.030;13.078;2023-05-07T08:11:49;66609.22;;;-136.11
76895;BMP280;65855;42.030;13.078;2023-05-07T08:14:14;66609.22;;;-136.11
76895;BMP280;65855;42.030;13.078;2023-05-07T08:16:41;66609.22;;;-136.11
76895;BMP280;65855;42.030;13.078;2023-05-07T08:19:06;66609.22;;;-136.11
76895;BMP280;65855;42.030;13.078;2023-05-07T08:21:32;66609.22;;;-136.11
76895;BMP280;65855;42.030;13.078;2023-05-07T08:23:57;66609.22;;;-136.11
76895;BMP280;65855;42.030;13.078;2023-05-07T08:26:23;66609.22;;;-136.11
76895;BMP280;65855;42.030;13.078;2023-05-07T08:28:48;66609.22;;;-136.11
76895;BMP280;65855;42.030;13.078;2023-05-07T08:31:13;66609.22;;;-136.11
76895;BMP280;65855;42.030;13.078;2023-05-07T08:33:39;66609.22;;;-136.11
76895;BMP280;65855;42.030;13.078;2023-05-07T08:36:06;66609.22;;;-136.11
76895;BMP280;65855;42.030;13.078;2023-05-07T08:38:32;66609.22;;;-136.11
76895;BMP280;65855;42.030;13.078;2023-05-07T08:40:57;66609.22;;;-136.11
76895;BMP280;65855;42.030;13.078;2023-05-07T08:43:25;66609.22;;;-136.11
76895;BMP280;65855;42.030;13.078;2023-05-07T08:45:53;66609.22;;;-136.11
76895;BMP280;65855;42.030;13.078;2023-05-07T08:48:21;66609.22;;;-136.11
76895;BMP280;65855;42.030;13.078;2023-05-07T08:50:47;66609.22;;;-136.11
76895;BMP280;65855;42.030;13.078;2023-05-07T08:53:13;66609.22;;;-136.11
76895;BMP280;65855;42.030;13.078;2023-05-07T08:55:40;66609.22;;;-136.11
76895;BMP280;65855;42.030;13.078;2023-05-07T08:58:05;66609.22;;;-136.11
76895;BMP280;65855;42.030;13.078;2023-05-07T09:00:32;66609.22;;;-136.11
76895;BMP280;65855;42.030;13.078;2023-05-07T09:02:57;66609.22;;;-136.11
76895;BMP280;65855;42.030;13.078;2023-05-07T09:05:23;66609.22;;;-136.11
76895;BMP280;65855;42.030;13.078;2023-05-07T09:07:48;66609.22;;;-136.11
76895;BMP280;65855;42.030;13.078;2023-05-07T09:10:14;66609.22;;;-136.11
76895;BMP280;65855;42.030;13.078;2023-05-07T09:12:39;66609.22;;;-136.11
76895;BMP280;65855;42.030;13.078;2023-05-07T09:15:06;66609.22;;;-136.11
76895;BMP280;65855;42.030;13.078;2023-05-07T09:17:31;66609.22;;;-136.11
76895;BMP280;65855;42.030;13.078;2023-05-07T09:20:02;66609.22;;;-136.11
76895;BMP280;65855;42.030;13.078;2023-05-07T09:22:31;66609.22;;;-136.11
76895;BMP280;65855;42.030;13.078;2023-05-07T09:24:57;66609.22;;;-136.11
76895;BMP280;65855;42.030;13.078;2023-05-07T09:27:22;66609.22;;;-136.11
76895;BMP280;65855;42.030;13.078;2023-05-07T09:29:48;66609.22;;;-136.11
76895;BMP280;65855;42.030;13.078;2023-05-07T09:32:14;66609.22;;;-136.11
76895;BMP280;65855;42.030;13.078;2023-05-07T09:34:41;66609.22;;;-136.11
76895;BMP280;65855;42.030;13.078;2023-05-07T09:37:06;66609.22;;;-136.11
76895;BMP280;65855;42.030;13.078;2023-05-07T09:39:44;66609.22;;;-136.11
76895;BMP280;65855;42.030;13.078;2023-05-07T09:42:10;66609.22;;;-136.11
76895;BMP280;65855;42.030;13.078;2023-05-07T09:44:37;66609.22;;;-136.11
76895;BMP280;65855;42.030;13.078;2023-05-07T09:47:05;66609.22;;;-136.11
76895;BMP280;65855;42.030;13.078;2023-05-07T09:49:34;66609.22;;;-136.11
76895;BMP280;65855;42.030;13.078;2023-05-07T09:52:01;66609.22;;;-136.11
76895;BMP280;65855;42.030;13.078;2023-05-07T09:54:27;66609.22;;;-136.11
76895;BMP280;65855;42.030;13.078;2023-05-07T09:56:56;66609.22;;;-136.11
76895;BMP280;65855;42.030;13.078;2023-05-07T09:59:22;66609.22;;;-136.11
76895;BMP280;65855;42.030;13.078;2023-05-07T10:01:48;66609.22;;;-136.11
76895;BMP280;65855;42.030;13.078;2023-05-07T10:04:14;66609.22;;;-136.11
76895;BMP280;65855;42.030;13.078;2023-05-07T10:06:40;66609.22;;;-136.11
76895;BMP280;65855;42.030;13.078;2023-05-07T10:09:07;66609.22;;;-136.11
76895;BMP280;65855;42.030;13.078;2023-05-07T10:11:33;66609.22;;;-136.11
76895;BMP280;65855;42.030;13.078;2023-05-07T10:14:00;66609.22;;;-136.11
76895;BMP280;65855;42.030;13.078;2023-05-07T10:16:29;66609.22;;;-136.11
76895;BMP280;65855;42.030;13.078;2023-05-07T10:18:57;66609.22;;;-136.11
76895;BMP280;65855;42.030;13.078;2023-05-07T10:21:23;66609.22;;;-136.11
76895;BMP280;65855;42.030;13.078;2023-05-07T10:23:51;66609.22;;;-136.11
76895;BMP280;65855;42.030;13.078;2023-05-07T10:26:20;66609.22;;;-136.11
76895;BMP280;65855;42.030;13.078;2023-05-07T10:28:49;66609.22;;;-136.11
76895;BMP280;65855;42.030;13.078;2023-05-07T10:31:58;66609.22;;;-136.11
76895;BMP280;65855;42.030;13.078;2023-05-07T10:34:36;66609.22;;;-136.11
76895;BMP280;65855;42.030;13.078;2023-05-07T10:37:03;66609.22;;;-136.11
76895;BMP280;65855;42.030;13.078;2023-05-07T10:39:29;66609.22;;;-136.11
76895;BMP280;65855;42.030;13.078;2023-05-07T10:41:55;66609.22;;;-136.11
76895;BMP280;65855;42.030;13.078;2023-05-07T10:44:27;66609.22;;;-136.11
76895;BMP280;65855;42.030;13.078;2023-05-07T10:47:12;66609.22;;;-136.11
76895;BMP280;65855;42.030;13.078;2023-05-07T10:52:18;66609.22;;;-136.11
76895;BMP280;65855;42.030;13.078;2023-05-07T10:54:43;66609.22;;;-136.11
76895;BMP280;65855;42.030;13.078;2023-05-07T10:59:57;66609.22;;;-136.11
76895;BMP280;65855;42.030;13.078;2023-05-07T11:02:23;66609.22;;;-136.11
76895;BMP280;65855;42.030;13.078;2023-05-07T11:07:59;66609.22;;;-136.11
76895;BMP280;65855;42.030;13.078;2023-05-07T11:10:51;66609.22;;;-136.11
76895;BMP280;65855;42.030;13.078;2023-05-07T11:13:17;66609.22;;;-136.11
76895;BMP280;65855;42.030;13.078;2023-05-07T11:15:45;66609.22;;;-136.11
76895;BMP280;65855;42.030;13.078;2023-05-07T11:18:12;66609.22;;;-136.11
76895;BMP280;65855;42.030;13.078;2023-05-07T11:26:04;66609.22;;;-136.11
76895;BMP280;65855;42.030;13.078;2023-05-07T11:28:30;66609.22;;;-136.11
76895;BMP280;65855;42.030;13.078;2023-05-07T11:30:57;66609.22;;;-136.11
76895;BMP280;65855;42.030;13.078;2023-05-07T11:33:23;66609.22;;;-136.11
76895;BMP280;65855;42.030;13.078;2023-05-07T11:35:52;66609.22;;;-136.11
76895;BMP280;65855;42.030;13.078;2023-05-07T11:38:18;66609.22;;;-136.11
76895;BMP280;65855;42.030;13.078;2023-05-07T11:40:54;66609.22;;;-136.11
76895;BMP280;65855;42.030;13.078;2023-05-07T11:43:20;66609.22;;;-136.11
76895;BMP280;65855;42.030;13.078;2023-05-07T11:45:46;66609.22;;;-136.11
76895;BMP280;65855;42.030;13.078;2023-05-07T11:48:13;66609.22;;;-136.11
76895;BMP280;65855;42.030;13.078;2023-05-07T11:51:02;66609.22;;;-136.11
76895;BMP280;65855;42.030;13.078;2023-05-07T11:53:35;66609.22;;;-136.11
76895;BMP280;65855;42.030;13.078;2023-05-07T11:56:09;66609.22;;;-136.11
76895;BMP280;65855;42.030;13.078;2023-05-07T11:58:34;66609.22;;;-136.11
76895;BMP280;65855;42.030;13.078;2023-05-07T12:01:00;66609.22;;;-136.11
76895;BMP280;65855;42.030;13.078;2023-05-07T12:03:25;66609.22;;;-136.11
76895;BMP280;65855;42.030;13.078;2023-05-07T12:05:51;66609.22;;;-136.11
76895;BMP280;65855;42.030;13.078;2023-05-07T12:08:21;66609.22;;;-136.11
76895;BMP280;65855;42.030;13.078;2023-05-07T12:10:49;66609.22;;;-136.11
76895;BMP280;65855;42.030;13.078;2023-05-07T12:15:40;66609.22;;;-136.11
76895;BMP280;65855;42.030;13.078;2023-05-07T12:18:06;66609.22;;;-136.11
76895;BMP280;65855;42.030;13.078;2023-05-07T12:20:31;66609.22;;;-136.11
76895;BMP280;65855;42.030;13.078;2023-05-07T12:22:57;66609.22;;;-136.11
76895;BMP280;65855;42.030;13.078;2023-05-07T12:25:22;66609.22;;;-136.11
76895;BMP280;65855;42.030;13.078;2023-05-07T12:27:52;66609.22;;;-136.11
76895;BMP280;65855;42.030;13.078;2023-05-07T12:30:17;66609.22;;;-136.11
76895;BMP280;65855;42.030;13.078;2023-05-07T12:32:44;66609.22;;;-136.11
76895;BMP280;65855;42.030;13.078;2023-05-07T12:35:10;66609.22;;;-136.11
76895;BMP280;65855;42.030;13.078;2023-05-07T12:37:36;66609.22;;;-136.11
76895;BMP280;65855;42.030;13.078;2023-05-07T12:40:09;66609.22;;;-136.11
76895;BMP280;65855;42.030;13.078;2023-05-07T12:42:39;66609.22;;;-136.11
76895;BMP280;65855;42.030;13.078;2023-05-07T12:45:15;66609.22;;;-136.11
76895;BMP280;65855;42.030;13.078;2023-05-07T12:47:46;66609.22;;;-136.11
76895;BMP280;65855;42.030;13.078;2023-05-07T12:50:15;66609.22;;;-136.11
76895;BMP280;65855;42.030;13.078;2023-05-07T12:52:41;66609.22;;;-136.11
76895;BMP280;65855;42.030;13.078;2023-05-07T12:55:08;66609.22;;;-136.11
76895;BMP280;65855;42.030;13.078;2023-05-07T12:57:53;66609.22;;;-136.11
76895;BMP280;65855;42.030;13.078;2023-05-07T13:00:33;66609.22;;;-136.11
76895;BMP280;65855;42.030;13.078;2023-05-07T13:02:58;66609.22;;;-136.11
76895;BMP280;65855;42.030;13.078;2023-05-07T13:05:24;66609.22;;;-136.11
76895;BMP280;65855;42.030;13.078;2023-05-07T13:07:56;66609.22;;;-136.11
76895;BMP280;65855;42.030;13.078;2023-05-07T13:10:24;66609.22;;;-136.11
76895;BMP280;65855;42.030;13.078;2023-05-07T13:12:50;66609.22;;;-136.11
76895;BMP280;65855;42.030;13.078;2023-05-07T13:15:16;66609.22;;;-136.11
76895;BMP280;65855;42.030;13.078;2023-05-07T13:17:42;66609.22;;;-136.11
76895;BMP280;65855;42.030;13.078;2023-05-07T13:20:09;66609.22;;;-136.11
76895;BMP280;65855;42.030;13.078;2023-05-07T13:22:35;66609.22;;;-136.11
76895;BMP280;65855;42.030;13.078;2023-05-07T13:25:01;66609.22;;;-136.11
76895;BMP280;65855;42.030;13.078;2023-05-07T13:27:27;66609.22;;;-136.11
76895;BMP280;65855;42.030;13.078;2023-05-07T13:29:52;66609.22;;;-136.11
76895;BMP280;65855;42.030;13.078;2023-05-07T13:32:18;66609.22;;;-136.11
76895;BMP280;65855;42.030;13.078;2023-05-07T13:34:43;66609.22;;;-136.11
76895;BMP280;65855;42.030;13.078;2023-05-07T13:37:08;66609.22;;;-136.11
76895;BMP280;65855;42.030;13.078;2023-05-07T13:39:34;66609.22;;;-136.11
76895;BMP280;65855;42.030;13.078;2023-05-07T13:41:59;66609.22;;;-136.11
76895;BMP280;65855;42.030;13.078;2023-05-07T13:44:26;66609.22;;;-136.11
76895;BMP280;65855;42.030;13.078;2023-05-07T13:46:51;66609.22;;;-136.11
76895;BMP280;65855;42.030;13.078;2023-05-07T13:49:16;66609.22;;;-136.11
76895;BMP280;65855;42.030;13.078;2023-05-07T13:51:42;66609.22;;;-136.11
76895;BMP280;65855;42.030;13.078;2023-05-07T13:54:07;66609.22;;;-136.11
76895;BMP280;65855;42.030;13.078;2023-05-07T13:56:33;66609.22;;;-136.11